createdAt,value
2019-05-16T00:02:34.340Z,77.86
2019-05-16T00:06:38.876Z,78.09
2019-05-16T00:10:40.467Z,77.86
2019-05-16T00:14:42.908Z,78.57
2019-05-16T00:18:45.042Z,78.84
2019-05-16T00:22:48.661Z,79.12
2019-05-16T00:26:50.960Z,79.18
2019-05-16T00:30:52.951Z,79.54
2019-05-16T00:34:55.267Z,80.13
2019-05-16T00:38:57.863Z,79.88
2019-05-16T00:43:00.396Z,80.28
2019-05-16T00:47:02.502Z,80.45
2019-05-16T00:51:07.829Z,81.07
2019-05-16T00:55:09.846Z,81.19
2019-05-16T00:59:12.346Z,81.20
2019-05-16T01:03:14.419Z,81.02
2019-05-16T01:07:18.657Z,80.81
2019-05-16T01:11:20.556Z,80.83
2019-05-16T01:15:22.734Z,80.68
2019-05-16T01:19:24.855Z,80.52
2019-05-16T01:23:28.258Z,80.97
2019-05-16T01:27:30.545Z,81.44
2019-05-16T01:31:32.677Z,81.63
2019-05-16T01:35:34.904Z,81.99
2019-05-16T01:39:38.171Z,81.72
2019-05-16T01:43:40.376Z,81.67
2019-05-16T01:47:45.270Z,82.17
2019-05-16T01:51:48.442Z,82.23
2019-05-16T01:55:50.739Z,82.44
2019-05-16T01:59:52.798Z,82.69
2019-05-16T02:03:54.890Z,82.24
2019-05-16T02:07:58.658Z,82.55
2019-05-16T02:12:00.898Z,82.73
2019-05-16T02:16:03.042Z,82.62
2019-05-16T02:20:05.594Z,82.69
2019-05-16T02:24:08.918Z,83.01
2019-05-16T02:28:11.132Z,83.19
2019-05-16T02:32:13.191Z,83.35
2019-05-16T02:36:15.214Z,83.19
2019-05-16T02:40:22.308Z,83.47
2019-05-16T02:44:25.027Z,82.92
2019-05-16T02:48:31.845Z,82.86
2019-05-16T02:52:31.993Z,82.90
2019-05-16T02:56:34.163Z,83.35
2019-05-16T03:00:42.075Z,83.54
2019-05-16T03:04:44.332Z,83.50
2019-05-16T03:08:50.691Z,83.39
2019-05-16T03:12:52.874Z,83.53
2019-05-16T03:17:00.855Z,83.70
2019-05-16T03:21:02.469Z,83.40
2019-05-16T03:25:04.629Z,83.28
2019-05-16T03:29:07.221Z,83.52
2019-05-16T03:33:14.251Z,83.14
2019-05-16T03:37:14.501Z,83.03
2019-05-16T03:41:16.937Z,82.72
2019-05-16T03:45:21.254Z,82.39
2019-05-16T03:49:23.005Z,82.26
2019-05-16T03:53:25.178Z,81.98
2019-05-16T03:57:30.446Z,81.31
2019-05-16T04:01:31.554Z,80.92
2019-05-16T04:05:33.763Z,81.29
2019-05-16T04:09:35.990Z,80.73
2019-05-16T04:13:41.117Z,80.01
2019-05-16T04:17:41.888Z,78.67
2019-05-16T04:21:43.925Z,78.94
2019-05-16T04:25:46.031Z,78.07
2019-05-16T04:29:51.066Z,77.17
2019-05-16T04:33:52.084Z,75.50
2019-05-16T04:37:54.237Z,74.07
2019-05-16T04:41:56.221Z,73.73
2019-05-16T04:46:01.359Z,72.23
2019-05-16T04:50:06.460Z,71.94
2019-05-16T04:54:11.325Z,70.35
2019-05-16T04:58:13.177Z,69.66
2019-05-16T05:02:15.562Z,68.26
2019-05-16T05:06:20.615Z,67.19
2019-05-16T05:10:21.500Z,66.09
2019-05-16T05:14:23.702Z,65.11
2019-05-16T05:18:25.821Z,64.07
2019-05-16T05:22:30.309Z,63.03
2019-05-16T05:26:31.729Z,61.52
2019-05-16T05:30:33.727Z,60.55
2019-05-16T05:34:35.842Z,59.92
2019-05-16T05:38:40.261Z,58.76
2019-05-16T05:42:42.052Z,57.10
2019-05-16T05:46:44.082Z,57.06
2019-05-16T05:50:46.175Z,55.00
2019-05-16T05:54:50.297Z,55.83
2019-05-16T05:58:53.075Z,54.85
2019-05-16T06:02:55.151Z,52.57
2019-05-16T06:06:57.402Z,54.28
2019-05-16T06:11:00.798Z,51.55
2019-05-16T06:15:07.828Z,51.19
2019-05-16T06:19:06.854Z,50.38
2019-05-16T06:23:10.621Z,48.81
2019-05-16T06:27:12.829Z,47.15
2019-05-16T06:31:14.730Z,46.12
2019-05-16T06:35:16.840Z,46.07
2019-05-16T06:39:19.901Z,44.81
2019-05-16T06:43:22.062Z,44.25
2019-05-16T06:47:24.283Z,41.35
2019-05-16T06:51:26.413Z,43.41
2019-05-16T06:55:29.621Z,42.12
2019-05-16T06:59:31.840Z,40.68
2019-05-16T07:03:34.033Z,40.71
2019-05-16T07:07:36.061Z,39.52
2019-05-16T07:11:39.769Z,39.65
2019-05-16T07:15:41.936Z,40.15
2019-05-16T07:19:44.066Z,40.44
2019-05-16T07:23:46.607Z,40.00
2019-05-16T07:27:51.094Z,38.46
2019-05-16T07:31:52.559Z,39.39
2019-05-16T07:35:54.616Z,39.30
2019-05-16T07:39:56.578Z,39.72
2019-05-16T07:44:00.985Z,38.62
2019-05-16T07:48:02.565Z,38.64
2019-05-16T07:52:04.736Z,38.97
2019-05-16T07:56:06.456Z,38.81
2019-05-16T08:00:09.749Z,37.69
2019-05-16T08:04:11.688Z,37.59
2019-05-16T08:08:13.768Z,36.99
2019-05-16T08:12:15.926Z,37.55
2019-05-16T08:16:20.789Z,36.39
2019-05-16T08:20:23.322Z,37.03
2019-05-16T08:24:25.349Z,36.84
2019-05-16T08:28:30.560Z,36.78
2019-05-16T08:32:31.603Z,37.54
2019-05-16T08:36:33.634Z,36.67
2019-05-16T08:41:01.006Z,36.53
2019-05-16T08:44:41.853Z,36.26
2019-05-16T08:48:46.757Z,36.82
2019-05-16T08:52:52.893Z,35.33
2019-05-16T08:56:55.735Z,34.72
2019-05-16T09:01:01.920Z,35.86
2019-05-16T09:05:04.996Z,34.80
2019-05-16T09:09:26.629Z,34.81
2019-05-16T09:13:10.682Z,36.92
2019-05-16T09:17:12.925Z,36.24
2019-05-16T09:21:17.981Z,36.92
2019-05-16T09:25:18.836Z,36.04
2019-05-16T09:29:20.815Z,35.01
2019-05-16T09:33:26.754Z,33.63
2019-05-16T09:37:28.361Z,35.63
2019-05-16T09:41:46.243Z,35.58
2019-05-16T09:45:37.798Z,34.04
2019-05-16T09:49:39.440Z,34.34
2019-05-16T09:53:41.610Z,33.01
2019-05-16T09:57:43.724Z,32.28
2019-05-16T10:01:47.717Z,32.99
2019-05-16T10:05:49.612Z,32.07
2019-05-16T10:09:51.422Z,31.77
2019-05-16T10:13:53.543Z,32.06
2019-05-16T10:17:57.507Z,32.26
2019-05-16T10:22:00.307Z,31.34
2019-05-16T10:26:03.546Z,32.57
2019-05-16T10:30:08.654Z,31.69
2019-05-16T10:34:11.032Z,32.28
2019-05-16T10:38:13.177Z,31.55
2019-05-16T10:42:27.232Z,32.54
2019-05-16T10:46:18.738Z,32.28
2019-05-16T10:50:21.304Z,32.86
2019-05-16T10:54:23.562Z,31.53
2019-05-16T10:58:36.504Z,33.40
2019-05-16T11:02:29.322Z,32.26
2019-05-16T11:06:31.659Z,32.24
2019-05-16T11:10:37.136Z,31.22
2019-05-16T11:14:38.765Z,33.33
2019-05-16T11:18:40.605Z,31.90
2019-05-16T11:22:42.469Z,31.68
2019-05-16T11:26:44.565Z,32.03
2019-05-16T11:30:47.625Z,32.54
2019-05-16T11:34:49.849Z,33.20
2019-05-16T11:38:51.938Z,32.50
2019-05-16T11:43:06.514Z,31.88
2019-05-16T11:46:58.592Z,31.56
2019-05-16T11:51:00.697Z,31.49
2019-05-16T11:55:02.809Z,33.57
2019-05-16T11:59:07.633Z,32.45
2019-05-16T12:03:08.737Z,31.19
2019-05-16T12:07:10.746Z,31.53
2019-05-16T12:11:12.729Z,33.51
2019-05-16T12:15:19.722Z,31.73
2019-05-16T12:19:19.230Z,30.97
2019-05-16T12:23:22.813Z,33.24
2019-05-16T12:27:32.974Z,32.16
2019-05-16T12:31:32.492Z,31.71
2019-05-16T12:35:33.126Z,31.65
2019-05-16T12:39:37.647Z,33.01
2019-05-16T12:43:48.993Z,32.34
2019-05-16T12:47:47.049Z,33.51
2019-05-16T12:51:48.459Z,30.68
2019-05-16T12:55:50.583Z,32.06
2019-05-16T12:59:52.802Z,31.71
2019-05-16T13:03:54.989Z,31.57
2019-05-16T13:07:57.083Z,31.18
2019-05-16T13:11:59.133Z,33.01
2019-05-16T13:16:01.249Z,34.41
2019-05-16T13:20:03.351Z,31.61
2019-05-16T13:24:06.927Z,31.53
2019-05-16T13:28:09.165Z,32.23
2019-05-16T13:32:11.391Z,32.05
2019-05-16T13:36:13.527Z,32.18
2019-05-16T13:40:17.105Z,33.21
2019-05-16T13:44:22.995Z,31.47
2019-05-16T13:48:23.073Z,32.37
2019-05-16T13:52:28.227Z,31.64
2019-05-16T13:56:29.153Z,31.92
2019-05-16T14:00:31.210Z,31.12
2019-05-16T14:04:33.265Z,30.75
2019-05-16T14:08:37.351Z,30.76
2019-05-16T14:12:39.220Z,30.83
2019-05-16T14:16:41.492Z,30.80
2019-05-16T14:20:46.466Z,30.47
2019-05-16T14:24:48.381Z,30.83
2019-05-16T14:28:50.701Z,29.87
2019-05-16T14:32:52.888Z,29.41
2019-05-16T14:36:57.714Z,28.31
2019-05-16T14:40:58.728Z,25.93
2019-05-16T14:45:10.741Z,23.57
2019-05-16T14:49:07.666Z,24.12
2019-05-16T14:53:09.996Z,23.49
2019-05-16T14:57:12.083Z,26.19
2019-05-16T15:01:14.218Z,25.37
2019-05-16T15:05:16.428Z,26.66
2019-05-16T15:09:18.380Z,27.94
2019-05-16T15:13:20.135Z,26.02
2019-05-16T15:17:21.942Z,27.41
2019-05-16T15:21:23.869Z,27.40
2019-05-16T15:25:26.638Z,26.92
2019-05-16T15:29:28.506Z,26.91
2019-05-16T15:33:30.299Z,27.56
2019-05-16T15:37:32.062Z,27.74
2019-05-16T15:41:36.289Z,27.63
2019-05-16T15:45:43.461Z,27.89
2019-05-16T15:49:47.741Z,28.36
2019-05-16T15:53:50.355Z,30.49
2019-05-16T15:57:52.472Z,31.66
2019-05-16T16:01:54.558Z,32.50
2019-05-16T16:05:56.828Z,34.27
2019-05-16T16:09:58.972Z,35.16
2019-05-16T16:14:01.265Z,35.86
2019-05-16T16:18:03.556Z,36.41
2019-05-16T16:22:07.690Z,35.88
2019-05-16T16:26:10.689Z,36.31
2019-05-16T16:30:14.092Z,37.49
2019-05-16T16:34:17.559Z,37.69
2019-05-16T16:38:24.121Z,38.24
2019-05-16T16:42:27.249Z,38.55
2019-05-16T16:46:34.066Z,37.65
2019-05-16T16:50:39.531Z,38.41
2019-05-16T16:54:44.635Z,39.88
2019-05-16T16:58:46.747Z,38.19
2019-05-16T17:03:02.117Z,39.30
2019-05-16T17:06:53.418Z,39.88
2019-05-16T17:10:57.298Z,39.52
2019-05-16T17:14:58.662Z,40.16
2019-05-16T17:19:00.504Z,40.17
2019-05-16T17:23:02.257Z,40.34
2019-05-16T17:27:07.684Z,40.80
2019-05-16T17:31:08.203Z,41.62
2019-05-16T17:35:10.939Z,41.15
2019-05-16T17:39:12.716Z,40.84
2019-05-16T17:43:16.441Z,41.02
2019-05-16T17:47:18.499Z,41.20
2019-05-16T17:51:42.566Z,42.16
2019-05-16T17:55:47.030Z,42.69
2019-05-16T17:59:49.181Z,43.09
2019-05-16T18:03:50.921Z,43.37
2019-05-16T18:07:52.757Z,44.94
2019-05-16T18:11:56.993Z,44.94
2019-05-16T18:15:58.674Z,44.78
2019-05-16T18:20:00.810Z,45.58
2019-05-16T18:24:03.365Z,45.52
2019-05-16T18:28:07.778Z,45.72
2019-05-16T18:32:09.448Z,45.73
2019-05-16T18:36:12.511Z,47.80
2019-05-16T18:40:16.611Z,47.63
2019-05-16T18:44:19.565Z,47.99
2019-05-16T18:48:22.050Z,48.47
2019-05-16T18:52:24.205Z,49.33
2019-05-16T18:56:27.165Z,49.23
2019-05-16T19:00:29.096Z,49.71
2019-05-16T19:04:31.274Z,51.27
2019-05-16T19:08:33.282Z,51.65
2019-05-16T19:12:37.170Z,51.88
2019-05-16T19:16:38.782Z,53.71
2019-05-16T19:20:46.006Z,52.78
2019-05-16T19:24:47.784Z,54.00
2019-05-16T19:28:49.606Z,53.73
2019-05-16T19:32:51.532Z,53.72
2019-05-16T19:36:53.317Z,54.36
2019-05-16T19:40:57.529Z,55.15
2019-05-16T19:44:59.801Z,56.20
2019-05-16T19:49:01.552Z,56.53
2019-05-16T19:53:07.331Z,57.08
2019-05-16T19:57:08.526Z,57.91
2019-05-16T20:01:10.316Z,57.53
2019-05-16T20:05:13.289Z,57.70
2019-05-16T20:09:16.592Z,58.24
2019-05-16T20:13:18.483Z,58.83
2019-05-16T20:17:20.267Z,60.40
2019-05-16T20:21:22.117Z,60.36
2019-05-16T20:25:23.936Z,61.50
2019-05-16T20:29:27.338Z,61.25
2019-05-16T20:33:29.265Z,63.18
2019-05-16T20:37:31.025Z,63.07
2019-05-16T20:41:32.820Z,63.00
2019-05-16T20:45:36.169Z,65.13
2019-05-16T20:49:38.067Z,64.83
2019-05-16T20:53:40.069Z,65.22
2019-05-16T20:57:41.865Z,65.97
2019-05-16T21:01:46.497Z,66.57
2019-05-16T21:05:48.325Z,66.00
2019-05-16T21:09:51.107Z,66.09
2019-05-16T21:13:52.864Z,65.64
2019-05-16T21:17:56.714Z,65.04
2019-05-16T21:21:58.608Z,64.35
2019-05-16T21:26:00.718Z,65.33
2019-05-16T21:30:02.907Z,65.18
2019-05-16T21:34:07.054Z,65.44
2019-05-16T21:38:09.085Z,65.28
2019-05-16T21:42:11.272Z,66.46
2019-05-16T21:46:13.482Z,66.21
2019-05-16T21:50:16.330Z,66.69
2019-05-16T21:54:20.092Z,66.97
2019-05-16T21:58:22.033Z,67.54
2019-05-16T22:02:26.397Z,67.32
2019-05-16T22:06:29.338Z,67.35
2019-05-16T22:10:31.626Z,67.57
2019-05-16T22:14:40.823Z,68.57
2019-05-16T22:18:42.978Z,69.58
2019-05-16T22:22:46.910Z,70.08
2019-05-16T22:26:48.789Z,70.40
2019-05-16T22:30:51.135Z,71.19
2019-05-16T22:34:53.265Z,71.18
2019-05-16T22:38:56.804Z,72.00
2019-05-16T22:42:59.177Z,72.40
2019-05-16T22:47:01.173Z,72.42
2019-05-16T22:51:03.196Z,72.67
2019-05-16T22:55:07.465Z,73.29
2019-05-16T22:59:09.959Z,73.12
2019-05-16T23:03:12.137Z,73.92
2019-05-16T23:07:16.418Z,73.89
2019-05-16T23:11:17.975Z,74.16
2019-05-16T23:15:20.575Z,73.97
2019-05-16T23:19:22.850Z,74.43
2019-05-16T23:23:26.583Z,74.81
2019-05-16T23:27:28.809Z,75.29
2019-05-16T23:31:31.014Z,75.09
2019-05-16T23:35:33.378Z,75.69
2019-05-16T23:39:37.761Z,75.93
2019-05-16T23:43:39.395Z,75.63
2019-05-16T23:47:41.502Z,75.96
2019-05-16T23:51:43.637Z,76.54
2019-05-16T23:55:47.102Z,77.31
2019-05-16T23:59:50.352Z,77.75
